sensor_id;sensor_type;location;lat;lon;timestamp;P1;P2;P0
74086;PMS7003;62445;48.406;-4.518;2023-03-01T00:01:17;2.00;2.00;1.25
74086;PMS7003;62445;48.406;-4.518;2023-03-01T00:03:44;1.75;1.00;0.25
74086;PMS7003;62445;48.406;-4.518;2023-03-01T00:06:10;2.25;1.00;1.00
74086;PMS7003;62445;48.406;-4.518;2023-03-01T00:08:36;2.00;2.00;1.25
74086;PMS7003;62445;48.406;-4.518;2023-03-01T00:13:31;1.00;1.00;1.00
74086;PMS7003;62445;48.406;-4.518;2023-03-01T00:15:57;1.00;1.00;0.75
74086;PMS7003;62445;48.406;-4.518;2023-03-01T00:18:23;3.25;2.25;1.50
74086;PMS7003;62445;48.406;-4.518;2023-03-01T00:20:49;1.00;1.00;1.00
74086;PMS7003;62445;48.406;-4.518;2023-03-01T00:23:18;1.75;1.75;1.00
74086;PMS7003;62445;48.406;-4.518;2023-03-01T00:25:43;1.00;1.00;1.00
74086;PMS7003;62445;48.406;-4.518;2023-03-01T00:28:09;1.00;1.00;0.50
74086;PMS7003;62445;48.406;-4.518;2023-03-01T00:30:34;1.50;1.25;1.00
74086;PMS7003;62445;48.406;-4.518;2023-03-01T00:33:00;1.00;1.00;1.00
74086;PMS7003;62445;48.406;-4.518;2023-03-01T00:35:25;0.75;0.00;0.00
74086;PMS7003;62445;48.406;-4.518;2023-03-01T00:37:50;0.50;0.50;0.50
74086;PMS7003;62445;48.406;-4.518;2023-03-01T00:40:22;1.00;1.00;0.75
74086;PMS7003;62445;48.406;-4.518;2023-03-01T00:42:49;2.00;1.00;1.00
74086;PMS7003;62445;48.406;-4.518;2023-03-01T00:45:14;1.75;1.75;1.50
74086;PMS7003;62445;48.406;-4.518;2023-03-01T00:47:40;2.00;1.00;0.75
74086;PMS7003;62445;48.406;-4.518;2023-03-01T00:50:05;1.00;1.00;1.00
74086;PMS7003;62445;48.406;-4.518;2023-03-01T00:52:31;1.50;1.00;1.00
74086;PMS7003;62445;48.406;-4.518;2023-03-01T00:54:56;1.25;1.00;0.50
74086;PMS7003;62445;48.406;-4.518;2023-03-01T00:57:22;1.50;1.50;1.00
74086;PMS7003;62445;48.406;-4.518;2023-03-01T00:59:48;3.50;1.00;1.00
74086;PMS7003;62445;48.406;-4.518;2023-03-01T01:02:13;1.00;1.00;1.00
74086;PMS7003;62445;48.406;-4.518;2023-03-01T01:04:39;1.00;0.00;0.00
74086;PMS7003;62445;48.406;-4.518;2023-03-01T01:07:04;0.00;0.00;0.00
74086;PMS7003;62445;48.406;-4.518;2023-03-01T01:09:30;1.00;1.00;0.75
74086;PMS7003;62445;48.406;-4.518;2023-03-01T01:11:56;0.00;0.00;0.00
74086;PMS7003;62445;48.406;-4.518;2023-03-01T01:14:21;1.00;1.00;1.00
74086;PMS7003;62445;48.406;-4.518;2023-03-01T01:16:47;1.00;1.00;0.50
74086;PMS7003;62445;48.406;-4.518;2023-03-01T01:19:12;1.25;1.25;1.00
74086;PMS7003;62445;48.406;-4.518;2023-03-01T01:21:38;1.00;1.00;1.00
74086;PMS7003;62445;48.406;-4.518;2023-03-01T01:24:04;1.00;1.00;1.00
74086;PMS7003;62445;48.406;-4.518;2023-03-01T01:26:31;1.25;1.25;1.25
74086;PMS7003;62445;48.406;-4.518;2023-03-01T01:28:58;1.00;1.00;1.00
74086;PMS7003;62445;48.406;-4.518;2023-03-01T01:31:24;0.00;0.00;0.00
74086;PMS7003;62445;48.406;-4.518;2023-03-01T01:33:52;0.00;0.00;0.00
74086;PMS7003;62445;48.406;-4.518;2023-03-01T01:36:19;2.25;1.00;1.00
74086;PMS7003;62445;48.406;-4.518;2023-03-01T01:38:44;1.00;1.00;1.00
74086;PMS7003;62445;48.406;-4.518;2023-03-01T01:41:10;1.50;1.00;1.00
74086;PMS7003;62445;48.406;-4.518;2023-03-01T01:43:38;1.00;1.00;1.00
74086;PMS7003;62445;48.406;-4.518;2023-03-01T01:46:10;0.50;0.50;0.50
74086;PMS7003;62445;48.406;-4.518;2023-03-01T01:48:41;3.00;3.00;2.00
74086;PMS7003;62445;48.406;-4.518;2023-03-01T01:51:14;3.00;2.00;1.25
74086;PMS7003;62445;48.406;-4.518;2023-03-01T01:53:44;1.00;1.00;0.50
74086;PMS7003;62445;48.406;-4.518;2023-03-01T01:56:14;2.00;0.75;0.50
74086;PMS7003;62445;48.406;-4.518;2023-03-01T01:58:42;1.50;1.50;1.25
74086;PMS7003;62445;48.406;-4.518;2023-03-01T02:01:08;2.50;2.00;1.75
74086;PMS7003;62445;48.406;-4.518;2023-03-01T02:03:34;2.00;2.00;1.25
74086;PMS7003;62445;48.406;-4.518;2023-03-01T02:06:11;1.50;1.50;1.25
74086;PMS7003;62445;48.406;-4.518;2023-03-01T02:08:55;2.00;2.00;2.00
74086;PMS7003;62445;48.406;-4.518;2023-03-01T02:11:25;5.00;2.75;2.00
74086;PMS7003;62445;48.406;-4.518;2023-03-01T02:13:52;2.50;2.00;2.00
74086;PMS7003;62445;48.406;-4.518;2023-03-01T02:16:19;3.00;3.00;2.50
74086;PMS7003;62445;48.406;-4.518;2023-03-01T02:18:45;3.25;3.25;2.75
74086;PMS7003;62445;48.406;-4.518;2023-03-01T02:24:15;3.75;3.75;3.25
74086;PMS7003;62445;48.406;-4.518;2023-03-01T02:26:55;3.25;3.25;3.00
74086;PMS7003;62445;48.406;-4.518;2023-03-01T02:29:25;5.00;5.00;4.00
74086;PMS7003;62445;48.406;-4.518;2023-03-01T02:31:52;5.00;4.25;3.25
74086;PMS7003;62445;48.406;-4.518;2023-03-01T02:34:22;5.25;5.00;4.00
74086;PMS7003;62445;48.406;-4.518;2023-03-01T02:37:05;4.50;4.50;4.00
74086;PMS7003;62445;48.406;-4.518;2023-03-01T02:39:41;6.25;4.75;4.00
74086;PMS7003;62445;48.406;-4.518;2023-03-01T02:42:12;7.25;4.00;4.00
74086;PMS7003;62445;48.406;-4.518;2023-03-01T02:44:41;3.25;3.25;2.00
74086;PMS7003;62445;48.406;-4.518;2023-03-01T02:47:07;4.50;4.50;4.00
74086;PMS7003;62445;48.406;-4.518;2023-03-01T02:49:34;4.75;4.75;4.00
74086;PMS7003;62445;48.406;-4.518;2023-03-01T02:55:08;7.25;6.25;5.25
74086;PMS7003;62445;48.406;-4.518;2023-03-01T02:57:38;6.50;6.25;5.00
74086;PMS7003;62445;48.406;-4.518;2023-03-01T03:00:09;6.50;6.50;5.50
74086;PMS7003;62445;48.406;-4.518;2023-03-01T03:02:44;7.50;7.50;6.50
74086;PMS7003;62445;48.406;-4.518;2023-03-01T03:05:12;7.00;7.00;4.75
74086;PMS7003;62445;48.406;-4.518;2023-03-01T03:07:45;4.75;4.75;4.00
74086;PMS7003;62445;48.406;-4.518;2023-03-01T03:12:54;8.00;8.00;6.25
74086;PMS7003;62445;48.406;-4.518;2023-03-01T03:15:28;7.75;7.75;5.50
74086;PMS7003;62445;48.406;-4.518;2023-03-01T03:17:54;7.00;6.75;5.00
74086;PMS7003;62445;48.406;-4.518;2023-03-01T03:20:21;9.25;8.50;7.25
74086;PMS7003;62445;48.406;-4.518;2023-03-01T03:22:50;9.00;9.00;5.25
74086;PMS7003;62445;48.406;-4.518;2023-03-01T03:25:17;9.75;8.75;7.50
74086;PMS7003;62445;48.406;-4.518;2023-03-01T03:27:44;8.00;8.00;6.50
74086;PMS7003;62445;48.406;-4.518;2023-03-01T03:30:12;7.50;7.25;5.50
74086;PMS7003;62445;48.406;-4.518;2023-03-01T03:32:40;9.00;8.25;6.50
74086;PMS7003;62445;48.406;-4.518;2023-03-01T03:35:06;5.75;5.75;4.75
74086;PMS7003;62445;48.406;-4.518;2023-03-01T03:37:37;8.50;7.50;6.25
74086;PMS7003;62445;48.406;-4.518;2023-03-01T03:40:25;8.25;7.75;7.25
74086;PMS7003;62445;48.406;-4.518;2023-03-01T03:42:54;8.25;8.25;7.00
74086;PMS7003;62445;48.406;-4.518;2023-03-01T03:45:20;9.75;8.75;7.25
74086;PMS7003;62445;48.406;-4.518;2023-03-01T03:47:45;7.75;7.75;6.50
74086;PMS7003;62445;48.406;-4.518;2023-03-01T03:50:12;9.25;9.25;7.50
74086;PMS7003;62445;48.406;-4.518;2023-03-01T03:52:39;8.75;8.75;7.00
74086;PMS7003;62445;48.406;-4.518;2023-03-01T03:55:05;7.50;7.50;7.00
74086;PMS7003;62445;48.406;-4.518;2023-03-01T03:57:41;9.00;8.00;6.50
74086;PMS7003;62445;48.406;-4.518;2023-03-01T04:00:08;8.25;7.75;7.00
74086;PMS7003;62445;48.406;-4.518;2023-03-01T04:02:40;10.75;10.50;7.75
74086;PMS7003;62445;48.406;-4.518;2023-03-01T04:05:07;8.50;8.50;6.50
74086;PMS7003;62445;48.406;-4.518;2023-03-01T04:07:37;13.25;11.00;7.50
74086;PMS7003;62445;48.406;-4.518;2023-03-01T04:10:04;10.00;10.00;7.75
74086;PMS7003;62445;48.406;-4.518;2023-03-01T04:12:31;8.00;8.00;7.00
74086;PMS7003;62445;48.406;-4.518;2023-03-01T04:14:59;12.75;11.50;9.25
74086;PMS7003;62445;48.406;-4.518;2023-03-01T04:17:25;10.00;10.00;6.75
74086;PMS7003;62445;48.406;-4.518;2023-03-01T04:19:50;12.50;10.50;8.25
74086;PMS7003;62445;48.406;-4.518;2023-03-01T04:22:15;10.25;10.25;8.00
74086;PMS7003;62445;48.406;-4.518;2023-03-01T04:24:43;10.50;9.00;7.75
74086;PMS7003;62445;48.406;-4.518;2023-03-01T04:27:09;10.00;9.50;7.50
74086;PMS7003;62445;48.406;-4.518;2023-03-01T04:29:35;13.50;11.00;7.75
74086;PMS7003;62445;48.406;-4.518;2023-03-01T04:32:00;11.50;10.75;8.00
74086;PMS7003;62445;48.406;-4.518;2023-03-01T04:34:25;13.25;10.75;8.75
74086;PMS7003;62445;48.406;-4.518;2023-03-01T04:36:54;10.25;9.75;8.50
74086;PMS7003;62445;48.406;-4.518;2023-03-01T04:39:20;10.50;10.50;9.00
74086;PMS7003;62445;48.406;-4.518;2023-03-01T04:41:45;11.25;11.00;8.50
74086;PMS7003;62445;48.406;-4.518;2023-03-01T04:44:11;12.25;12.00;9.50
74086;PMS7003;62445;48.406;-4.518;2023-03-01T04:46:37;11.25;11.25;9.00
74086;PMS7003;62445;48.406;-4.518;2023-03-01T04:49:03;10.50;10.50;7.75
74086;PMS7003;62445;48.406;-4.518;2023-03-01T04:51:28;15.00;13.75;8.75
74086;PMS7003;62445;48.406;-4.518;2023-03-01T04:53:54;12.75;12.75;9.25
74086;PMS7003;62445;48.406;-4.518;2023-03-01T04:56:20;14.75;11.50;8.50
74086;PMS7003;62445;48.406;-4.518;2023-03-01T04:58:47;15.25;13.25;10.25
74086;PMS7003;62445;48.406;-4.518;2023-03-01T05:01:14;12.25;12.25;10.00
74086;PMS7003;62445;48.406;-4.518;2023-03-01T05:03:42;10.75;10.75;9.75
74086;PMS7003;62445;48.406;-4.518;2023-03-01T05:06:08;15.25;13.75;11.00
74086;PMS7003;62445;48.406;-4.518;2023-03-01T05:08:34;16.25;15.25;11.25
74086;PMS7003;62445;48.406;-4.518;2023-03-01T05:11:02;14.00;12.75;9.00
74086;PMS7003;62445;48.406;-4.518;2023-03-01T05:13:27;14.25;12.75;9.50
74086;PMS7003;62445;48.406;-4.518;2023-03-01T05:15:55;15.75;13.75;10.00
74086;PMS7003;62445;48.406;-4.518;2023-03-01T05:18:22;16.00;13.75;9.50
74086;PMS7003;62445;48.406;-4.518;2023-03-01T05:20:50;15.50;15.50;10.75
74086;PMS7003;62445;48.406;-4.518;2023-03-01T05:23:16;12.25;12.25;11.00
74086;PMS7003;62445;48.406;-4.518;2023-03-01T05:25:43;12.25;11.25;8.50
74086;PMS7003;62445;48.406;-4.518;2023-03-01T05:28:12;11.00;11.00;9.25
74086;PMS7003;62445;48.406;-4.518;2023-03-01T05:30:37;16.50;15.25;10.50
74086;PMS7003;62445;48.406;-4.518;2023-03-01T05:33:06;14.75;12.50;9.50
74086;PMS7003;62445;48.406;-4.518;2023-03-01T05:35:38;10.75;10.75;9.00
74086;PMS7003;62445;48.406;-4.518;2023-03-01T05:38:05;16.25;16.00;11.00
74086;PMS7003;62445;48.406;-4.518;2023-03-01T05:40:32;16.25;15.00;10.75
74086;PMS7003;62445;48.406;-4.518;2023-03-01T05:42:58;19.25;17.50;11.50
74086;PMS7003;62445;48.406;-4.518;2023-03-01T05:45:24;14.50;14.50;10.75
74086;PMS7003;62445;48.406;-4.518;2023-03-01T05:47:51;13.50;12.75;9.00
74086;PMS7003;62445;48.406;-4.518;2023-03-01T05:50:21;17.00;14.50;11.00
74086;PMS7003;62445;48.406;-4.518;2023-03-01T05:53:00;14.25;13.50;10.75
74086;PMS7003;62445;48.406;-4.518;2023-03-01T05:55:30;17.50;16.00;11.75
74086;PMS7003;62445;48.406;-4.518;2023-03-01T05:58:00;17.25;16.50;12.25
74086;PMS7003;62445;48.406;-4.518;2023-03-01T06:00:27;15.25;14.00;8.75
74086;PMS7003;62445;48.406;-4.518;2023-03-01T06:02:53;17.25;17.00;12.75
74086;PMS7003;62445;48.406;-4.518;2023-03-01T06:05:20;14.75;14.75;11.75
74086;PMS7003;62445;48.406;-4.518;2023-03-01T06:07:47;14.75;14.00;10.75
74086;PMS7003;62445;48.406;-4.518;2023-03-01T06:10:13;16.25;15.00;11.00
74086;PMS7003;62445;48.406;-4.518;2023-03-01T06:12:39;17.00;16.50;12.00
74086;PMS7003;62445;48.406;-4.518;2023-03-01T06:15:06;17.00;16.00;13.25
74086;PMS7003;62445;48.406;-4.518;2023-03-01T06:17:35;14.25;14.25;10.25
74086;PMS7003;62445;48.406;-4.518;2023-03-01T06:20:06;16.50;15.75;10.50
74086;PMS7003;62445;48.406;-4.518;2023-03-01T06:22:36;17.25;16.50;12.00
74086;PMS7003;62445;48.406;-4.518;2023-03-01T06:25:03;14.75;14.75;10.00
74086;PMS7003;62445;48.406;-4.518;2023-03-01T06:27:29;16.00;15.00;11.00
74086;PMS7003;62445;48.406;-4.518;2023-03-01T06:29:54;19.75;17.50;12.25
74086;PMS7003;62445;48.406;-4.518;2023-03-01T06:32:19;18.25;17.00;11.25
74086;PMS7003;62445;48.406;-4.518;2023-03-01T06:34:45;17.50;15.50;9.75
74086;PMS7003;62445;48.406;-4.518;2023-03-01T06:37:10;17.50;16.50;11.50
74086;PMS7003;62445;48.406;-4.518;2023-03-01T06:39:36;17.50;17.00;12.50
74086;PMS7003;62445;48.406;-4.518;2023-03-01T06:42:01;17.50;16.50;11.50
74086;PMS7003;62445;48.406;-4.518;2023-03-01T06:44:27;17.00;17.00;12.75
74086;PMS7003;62445;48.406;-4.518;2023-03-01T06:46:53;18.00;18.00;13.50
74086;PMS7003;62445;48.406;-4.518;2023-03-01T06:49:19;19.25;19.00;13.50
74086;PMS7003;62445;48.406;-4.518;2023-03-01T06:51:44;20.75;20.75;15.00
74086;PMS7003;62445;48.406;-4.518;2023-03-01T06:54:11;17.50;17.00;12.00
74086;PMS7003;62445;48.406;-4.518;2023-03-01T06:56:36;18.25;17.25;13.50
74086;PMS7003;62445;48.406;-4.518;2023-03-01T06:59:02;18.25;17.25;14.50
74086;PMS7003;62445;48.406;-4.518;2023-03-01T07:01:28;18.00;15.50;10.50
74086;PMS7003;62445;48.406;-4.518;2023-03-01T07:03:54;20.50;18.00;14.25
74086;PMS7003;62445;48.406;-4.518;2023-03-01T07:06:20;18.50;17.50;14.00
74086;PMS7003;62445;48.406;-4.518;2023-03-01T07:08:46;21.50;19.25;14.50
74086;PMS7003;62445;48.406;-4.518;2023-03-01T07:11:12;17.00;16.25;10.50
74086;PMS7003;62445;48.406;-4.518;2023-03-01T07:13:37;16.25;16.00;11.00
74086;PMS7003;62445;48.406;-4.518;2023-03-01T07:16:03;20.50;18.75;13.25
74086;PMS7003;62445;48.406;-4.518;2023-03-01T07:18:28;18.75;18.75;14.75
74086;PMS7003;62445;48.406;-4.518;2023-03-01T07:20:54;21.50;17.75;13.75
74086;PMS7003;62445;48.406;-4.518;2023-03-01T07:23:19;16.25;16.25;11.00
74086;PMS7003;62445;48.406;-4.518;2023-03-01T07:25:50;17.50;17.50;14.75
74086;PMS7003;62445;48.406;-4.518;2023-03-01T07:28:17;17.50;17.50;12.75
74086;PMS7003;62445;48.406;-4.518;2023-03-01T07:30:42;17.75;17.75;13.50
74086;PMS7003;62445;48.406;-4.518;2023-03-01T07:33:08;20.25;19.25;14.25
74086;PMS7003;62445;48.406;-4.518;2023-03-01T07:35:33;17.00;17.00;13.25
74086;PMS7003;62445;48.406;-4.518;2023-03-01T07:37:59;22.25;16.75;11.50
74086;PMS7003;62445;48.406;-4.518;2023-03-01T07:40:24;8.75;8.50;3.50
74086;PMS7003;62445;48.406;-4.518;2023-03-01T07:42:54;19.25;19.00;13.75
74086;PMS7003;62445;48.406;-4.518;2023-03-01T07:45:24;17.25;16.00;12.00
74086;PMS7003;62445;48.406;-4.518;2023-03-01T07:47:50;19.50;18.25;14.25
74086;PMS7003;62445;48.406;-4.518;2023-03-01T07:50:17;20.00;20.00;15.25
74086;PMS7003;62445;48.406;-4.518;2023-03-01T07:52:44;16.75;16.50;12.75
74086;PMS7003;62445;48.406;-4.518;2023-03-01T07:55:11;21.25;19.50;14.50
74086;PMS7003;62445;48.406;-4.518;2023-03-01T07:57:36;16.25;14.00;9.00
74086;PMS7003;62445;48.406;-4.518;2023-03-01T08:00:01;18.50;16.50;13.25
74086;PMS7003;62445;48.406;-4.518;2023-03-01T08:02:27;18.75;18.50;15.00
74086;PMS7003;62445;48.406;-4.518;2023-03-01T08:04:53;17.75;17.25;13.75
74086;PMS7003;62445;48.406;-4.518;2023-03-01T08:07:18;15.75;15.75;11.00
74086;PMS7003;62445;48.406;-4.518;2023-03-01T08:09:44;19.00;17.25;12.50
74086;PMS7003;62445;48.406;-4.518;2023-03-01T08:12:09;20.25;19.25;14.25
74086;PMS7003;62445;48.406;-4.518;2023-03-01T08:14:35;21.00;17.00;13.50
74086;PMS7003;62445;48.406;-4.518;2023-03-01T08:17:00;21.00;18.75;14.50
74086;PMS7003;62445;48.406;-4.518;2023-03-01T08:19:28;9.50;8.75;5.00
74086;PMS7003;62445;48.406;-4.518;2023-03-01T08:21:53;20.00;18.25;13.50
74086;PMS7003;62445;48.406;-4.518;2023-03-01T08:24:19;20.25;18.25;14.00
74086;PMS7003;62445;48.406;-4.518;2023-03-01T08:26:44;18.25;17.75;15.00
74086;PMS7003;62445;48.406;-4.518;2023-03-01T08:29:10;16.25;16.25;13.25
74086;PMS7003;62445;48.406;-4.518;2023-03-01T08:31:36;18.25;17.50;14.50
74086;PMS7003;62445;48.406;-4.518;2023-03-01T08:34:07;17.50;17.00;12.25
74086;PMS7003;62445;48.406;-4.518;2023-03-01T08:36:36;19.00;19.00;14.50
74086;PMS7003;62445;48.406;-4.518;2023-03-01T08:39:05;23.50;21.50;17.00
74086;PMS7003;62445;48.406;-4.518;2023-03-01T08:41:31;20.50;18.50;13.75
74086;PMS7003;62445;48.406;-4.518;2023-03-01T08:43:57;23.25;21.00;15.50
74086;PMS7003;62445;48.406;-4.518;2023-03-01T08:46:29;18.50;17.75;14.00
74086;PMS7003;62445;48.406;-4.518;2023-03-01T08:48:56;21.50;19.75;13.75
74086;PMS7003;62445;48.406;-4.518;2023-03-01T08:51:22;21.00;18.50;12.00
74086;PMS7003;62445;48.406;-4.518;2023-03-01T08:53:48;20.50;17.75;13.75
74086;PMS7003;62445;48.406;-4.518;2023-03-01T08:56:15;17.50;17.50;14.25
74086;PMS7003;62445;48.406;-4.518;2023-03-01T08:58:45;19.00;19.00;15.00
74086;PMS7003;62445;48.406;-4.518;2023-03-01T09:01:13;20.00;18.00;14.50
74086;PMS7003;62445;48.406;-4.518;2023-03-01T09:03:41;18.75;17.25;14.25
74086;PMS7003;62445;48.406;-4.518;2023-03-01T09:06:07;21.50;20.50;15.25
74086;PMS7003;62445;48.406;-4.518;2023-03-01T09:08:37;23.75;21.75;15.75
74086;PMS7003;62445;48.406;-4.518;2023-03-01T09:11:04;22.00;19.00;14.50
74086;PMS7003;62445;48.406;-4.518;2023-03-01T09:13:32;21.25;20.25;15.25
74086;PMS7003;62445;48.406;-4.518;2023-03-01T09:15:58;18.50;17.75;14.50
74086;PMS7003;62445;48.406;-4.518;2023-03-01T09:18:25;18.75;18.00;14.00
74086;PMS7003;62445;48.406;-4.518;2023-03-01T09:20:50;20.25;16.00;12.50
74086;PMS7003;62445;48.406;-4.518;2023-03-01T09:23:15;17.00;16.50;11.50
74086;PMS7003;62445;48.406;-4.518;2023-03-01T09:25:41;15.25;15.25;12.75
74086;PMS7003;62445;48.406;-4.518;2023-03-01T09:28:06;15.75;14.50;10.75
74086;PMS7003;62445;48.406;-4.518;2023-03-01T09:30:32;20.25;16.75;13.75
74086;PMS7003;62445;48.406;-4.518;2023-03-01T09:32:57;17.75;17.00;11.00
74086;PMS7003;62445;48.406;-4.518;2023-03-01T09:35:22;18.50;17.25;11.25
74086;PMS7003;62445;48.406;-4.518;2023-03-01T09:37:48;18.25;16.50;12.50
74086;PMS7003;62445;48.406;-4.518;2023-03-01T09:40:16;17.00;17.00;12.75
74086;PMS7003;62445;48.406;-4.518;2023-03-01T09:42:55;16.75;14.75;11.25
74086;PMS7003;62445;48.406;-4.518;2023-03-01T09:45:35;15.25;14.25;10.50
74086;PMS7003;62445;48.406;-4.518;2023-03-01T09:48:06;15.00;14.75;10.25
74086;PMS7003;62445;48.406;-4.518;2023-03-01T09:50:41;16.50;16.00;13.00
74086;PMS7003;62445;48.406;-4.518;2023-03-01T09:53:19;18.50;15.75;13.25
74086;PMS7003;62445;48.406;-4.518;2023-03-01T09:55:55;18.50;16.50;12.00
74086;PMS7003;62445;48.406;-4.518;2023-03-01T10:01:27;20.00;18.00;14.00
74086;PMS7003;62445;48.406;-4.518;2023-03-01T10:04:20;24.00;21.75;15.00
74086;PMS7003;62445;48.406;-4.518;2023-03-01T10:07:36;17.25;15.75;12.00
74086;PMS7003;62445;48.406;-4.518;2023-03-01T10:09:41;23.50;18.75;13.75
74086;PMS7003;62445;48.406;-4.518;2023-03-01T10:12:10;16.50;15.75;13.25
74086;PMS7003;62445;48.406;-4.518;2023-03-01T10:17:37;18.25;17.00;12.00
74086;PMS7003;62445;48.406;-4.518;2023-03-01T10:20:15;16.75;15.50;10.75
74086;PMS7003;62445;48.406;-4.518;2023-03-01T10:22:46;15.50;14.50;11.75
74086;PMS7003;62445;48.406;-4.518;2023-03-01T10:25:15;15.75;14.25;9.75
74086;PMS7003;62445;48.406;-4.518;2023-03-01T10:27:52;17.75;14.50;10.50
74086;PMS7003;62445;48.406;-4.518;2023-03-01T10:30:35;15.00;15.00;11.50
74086;PMS7003;62445;48.406;-4.518;2023-03-01T10:36:07;18.75;16.00;11.50
74086;PMS7003;62445;48.406;-4.518;2023-03-01T10:38:46;16.25;15.00;10.50
74086;PMS7003;62445;48.406;-4.518;2023-03-01T10:41:19;16.75;16.75;10.50
74086;PMS7003;62445;48.406;-4.518;2023-03-01T10:43:49;17.50;14.50;11.00
74086;PMS7003;62445;48.406;-4.518;2023-03-01T10:46:26;16.00;14.50;10.00
74086;PMS7003;62445;48.406;-4.518;2023-03-01T10:49:13;15.50;15.25;10.75
74086;PMS7003;62445;48.406;-4.518;2023-03-01T10:51:43;17.00;16.25;11.00
74086;PMS7003;62445;48.406;-4.518;2023-03-01T10:54:15;13.75;13.00;10.00
74086;PMS7003;62445;48.406;-4.518;2023-03-01T10:56:50;15.75;15.75;12.00
74086;PMS7003;62445;48.406;-4.518;2023-03-01T11:02:22;15.25;14.00;10.00
74086;PMS7003;62445;48.406;-4.518;2023-03-01T11:05:16;19.50;17.50;11.50
74086;PMS7003;62445;48.406;-4.518;2023-03-01T11:07:50;18.75;16.75;12.50
74086;PMS7003;62445;48.406;-4.518;2023-03-01T11:10:25;16.75;14.75;10.75
74086;PMS7003;62445;48.406;-4.518;2023-03-01T11:13:14;14.25;13.25;9.75
74086;PMS7003;62445;48.406;-4.518;2023-03-01T11:15:41;15.50;14.75;10.00
74086;PMS7003;62445;48.406;-4.518;2023-03-01T11:18:18;23.25;17.00;11.75
74086;PMS7003;62445;48.406;-4.518;2023-03-01T11:20:45;18.00;14.25;9.50
74086;PMS7003;62445;48.406;-4.518;2023-03-01T11:23:14;16.50;15.25;10.50
74086;PMS7003;62445;48.406;-4.518;2023-03-01T11:25:44;16.50;15.00;11.25
74086;PMS7003;62445;48.406;-4.518;2023-03-01T11:28:16;17.75;17.00;12.75
74086;PMS7003;62445;48.406;-4.518;2023-03-01T11:33:39;19.50;16.00;13.50
74086;PMS7003;62445;48.406;-4.518;2023-03-01T11:42:05;20.00;16.50;12.25
74086;PMS7003;62445;48.406;-4.518;2023-03-01T11:44:43;15.50;14.75;11.25
74086;PMS7003;62445;48.406;-4.518;2023-03-01T11:49:56;19.00;18.50;12.50
74086;PMS7003;62445;48.406;-4.518;2023-03-01T11:55:49;22.50;18.75;12.50
74086;PMS7003;62445;48.406;-4.518;2023-03-01T11:58:43;18.25;17.75;14.50
74086;PMS7003;62445;48.406;-4.518;2023-03-01T12:01:40;18.25;17.75;12.75
74086;PMS7003;62445;48.406;-4.518;2023-03-01T12:06:57;24.25;21.25;13.75
74086;PMS7003;62445;48.406;-4.518;2023-03-01T12:20:50;21.25;16.50;11.50
74086;PMS7003;62445;48.406;-4.518;2023-03-01T12:42:24;20.00;18.75;14.75
74086;PMS7003;62445;48.406;-4.518;2023-03-01T12:50:00;8.00;7.00;2.00
74086;PMS7003;62445;48.406;-4.518;2023-03-01T12:55:26;22.00;20.25;14.75
74086;PMS7003;62445;48.406;-4.518;2023-03-01T12:58:12;19.25;19.25;14.50
74086;PMS7003;62445;48.406;-4.518;2023-03-01T13:06:32;22.25;22.25;16.25
74086;PMS7003;62445;48.406;-4.518;2023-03-01T13:17:56;22.75;20.25;15.00
74086;PMS7003;62445;48.406;-4.518;2023-03-01T13:36:11;22.75;20.25;15.00
74086;PMS7003;62445;48.406;-4.518;2023-03-01T13:38:58;24.25;20.00;14.00
74086;PMS7003;62445;48.406;-4.518;2023-03-01T13:47:36;21.50;20.25;14.50
74086;PMS7003;62445;48.406;-4.518;2023-03-01T13:49:53;18.50;16.25;11.00
74086;PMS7003;62445;48.406;-4.518;2023-03-01T13:52:40;21.75;19.00;12.50
74086;PMS7003;62445;48.406;-4.518;2023-03-01T13:57:42;23.50;23.50;17.75
74086;PMS7003;62445;48.406;-4.518;2023-03-01T14:00:27;22.50;19.00;14.25
74086;PMS7003;62445;48.406;-4.518;2023-03-01T14:03:00;29.50;23.75;17.00
74086;PMS7003;62445;48.406;-4.518;2023-03-01T14:05:27;21.50;20.50;15.50
74086;PMS7003;62445;48.406;-4.518;2023-03-01T14:07:53;20.75;19.50;13.25
74086;PMS7003;62445;48.406;-4.518;2023-03-01T14:10:19;23.75;22.25;15.75
74086;PMS7003;62445;48.406;-4.518;2023-03-01T14:12:47;19.25;18.00;14.25
74086;PMS7003;62445;48.406;-4.518;2023-03-01T14:15:25;20.25;20.00;13.25
74086;PMS7003;62445;48.406;-4.518;2023-03-01T14:18:02;22.50;21.50;16.00
74086;PMS7003;62445;48.406;-4.518;2023-03-01T14:20:30;21.25;20.50;13.75
74086;PMS7003;62445;48.406;-4.518;2023-03-01T14:23:01;28.25;21.75;14.75
74086;PMS7003;62445;48.406;-4.518;2023-03-01T14:25:34;20.25;20.00;15.75
74086;PMS7003;62445;48.406;-4.518;2023-03-01T14:28:11;24.00;21.75;15.00
74086;PMS7003;62445;48.406;-4.518;2023-03-01T14:30:42;23.25;20.25;14.25
74086;PMS7003;62445;48.406;-4.518;2023-03-01T14:35:54;20.00;19.50;13.50
74086;PMS7003;62445;48.406;-4.518;2023-03-01T14:38:23;23.75;20.50;16.25
74086;PMS7003;62445;48.406;-4.518;2023-03-01T14:41:02;21.75;21.00;15.25
74086;PMS7003;62445;48.406;-4.518;2023-03-01T14:43:33;22.75;21.75;16.00
74086;PMS7003;62445;48.406;-4.518;2023-03-01T14:46:00;23.50;21.25;15.00
74086;PMS7003;62445;48.406;-4.518;2023-03-01T14:48:26;23.00;20.25;16.00
74086;PMS7003;62445;48.406;-4.518;2023-03-01T14:50:54;24.00;22.50;15.50
74086;PMS7003;62445;48.406;-4.518;2023-03-01T14:53:23;23.25;20.50;14.25
74086;PMS7003;62445;48.406;-4.518;2023-03-01T14:55:51;21.50;20.75;15.50
74086;PMS7003;62445;48.406;-4.518;2023-03-01T14:58:21;22.25;19.25;15.00
74086;PMS7003;62445;48.406;-4.518;2023-03-01T15:00:59;20.50;18.50;13.75
74086;PMS7003;62445;48.406;-4.518;2023-03-01T15:03:37;19.00;19.00;13.50
74086;PMS7003;62445;48.406;-4.518;2023-03-01T15:06:11;21.00;20.00;14.75
74086;PMS7003;62445;48.406;-4.518;2023-03-01T15:08:50;21.75;20.50;15.00
74086;PMS7003;62445;48.406;-4.518;2023-03-01T15:13:54;24.75;20.50;15.00
74086;PMS7003;62445;48.406;-4.518;2023-03-01T15:16:26;20.50;20.50;15.25
74086;PMS7003;62445;48.406;-4.518;2023-03-01T15:21:31;23.00;22.75;16.75
74086;PMS7003;62445;48.406;-4.518;2023-03-01T15:26:49;26.25;24.50;16.00
74086;PMS7003;62445;48.406;-4.518;2023-03-01T15:29:19;18.00;18.00;11.25
74086;PMS7003;62445;48.406;-4.518;2023-03-01T15:31:55;21.50;20.25;14.25
74086;PMS7003;62445;48.406;-4.518;2023-03-01T15:34:29;18.75;17.50;13.75
74086;PMS7003;62445;48.406;-4.518;2023-03-01T15:37:01;21.50;18.75;14.75
74086;PMS7003;62445;48.406;-4.518;2023-03-01T15:42:05;23.50;20.50;13.50
74086;PMS7003;62445;48.406;-4.518;2023-03-01T15:44:41;23.75;22.25;16.25
74086;PMS7003;62445;48.406;-4.518;2023-03-01T15:47:26;25.75;20.50;15.00
74086;PMS7003;62445;48.406;-4.518;2023-03-01T15:49:55;21.50;19.00;12.75
74086;PMS7003;62445;48.406;-4.518;2023-03-01T15:55:05;17.75;17.75;13.25
74086;PMS7003;62445;48.406;-4.518;2023-03-01T15:57:39;23.00;19.75;14.25
74086;PMS7003;62445;48.406;-4.518;2023-03-01T16:00:04;22.00;21.75;15.25
74086;PMS7003;62445;48.406;-4.518;2023-03-01T16:02:36;21.25;20.75;13.00
74086;PMS7003;62445;48.406;-4.518;2023-03-01T16:05:03;14.75;13.75;10.00
74086;PMS7003;62445;48.406;-4.518;2023-03-01T16:07:28;21.75;19.50;14.25
74086;PMS7003;62445;48.406;-4.518;2023-03-01T16:09:56;28.00;22.50;15.50
74086;PMS7003;62445;48.406;-4.518;2023-03-01T16:12:21;22.75;20.25;15.50